createdAt,value
2019-05-18T00:01:31.912Z,30.23
2019-05-18T00:04:03.851Z,35.27
2019-05-18T00:06:35.655Z,31.33
2019-05-18T00:09:07.371Z,31.30
2019-05-18T00:11:39.177Z,30.37
2019-05-18T00:14:11.079Z,29.30
2019-05-18T00:16:42.897Z,31.67
2019-05-18T00:19:14.712Z,33.47
2019-05-18T00:21:46.428Z,36.47
2019-05-18T00:24:18.152Z,33.20
2019-05-18T00:26:49.878Z,38.50
2019-05-18T00:29:21.630Z,34.37
2019-05-18T00:31:53.344Z,37.20
2019-05-18T00:34:25.136Z,39.63
2019-05-18T00:36:56.836Z,33.03
2019-05-18T00:39:28.621Z,36.70
2019-05-18T00:42:00.497Z,35.53
2019-05-18T00:44:32.334Z,38.47
2019-05-18T00:47:04.132Z,38.90
2019-05-18T00:49:35.837Z,35.17
2019-05-18T00:52:07.541Z,34.47
2019-05-18T00:54:39.270Z,47.70
2019-05-18T00:57:11.197Z,41.27
2019-05-18T00:59:43.108Z,43.57
2019-05-18T01:02:14.910Z,47.53
2019-05-18T01:04:46.718Z,41.37
2019-05-18T01:07:18.420Z,43.10
2019-05-18T01:09:50.134Z,40.07
2019-05-18T01:12:21.835Z,47.93
2019-05-18T01:14:53.564Z,46.33
2019-05-18T01:17:25.282Z,44.43
2019-05-18T01:19:57.108Z,42.93
2019-05-18T01:22:28.817Z,48.07
2019-05-18T01:25:00.739Z,41.77
2019-05-18T01:27:32.448Z,51.33
2019-05-18T01:30:05.385Z,59.83
2019-05-18T01:32:37.080Z,55.67
2019-05-18T01:35:09.196Z,54.33
2019-05-18T01:37:40.889Z,47.57
2019-05-18T01:40:12.805Z,57.90
2019-05-18T01:42:44.512Z,47.60
2019-05-18T01:45:17.648Z,53.93
2019-05-18T01:47:49.673Z,44.97
2019-05-18T01:50:21.487Z,51.37
2019-05-18T01:52:53.190Z,57.67
2019-05-18T01:55:24.896Z,65.63
2019-05-18T01:57:56.610Z,71.87
2019-05-18T02:00:28.430Z,60.83
2019-05-18T02:03:00.135Z,59.43
2019-05-18T02:05:31.874Z,63.10
2019-05-18T02:08:03.669Z,56.80
2019-05-18T02:10:35.395Z,58.03
2019-05-18T02:13:07.186Z,66.90
2019-05-18T02:15:38.901Z,69.20
2019-05-18T02:18:10.624Z,64.23
2019-05-18T02:20:42.349Z,70.07
2019-05-18T02:23:14.145Z,66.60
2019-05-18T02:25:45.962Z,67.40
2019-05-18T02:28:17.781Z,87.60
2019-05-18T02:30:49.519Z,84.27
2019-05-18T02:33:21.209Z,84.53
2019-05-18T02:35:52.947Z,89.03
2019-05-18T02:38:24.740Z,104.00
2019-05-18T02:40:56.553Z,93.53
2019-05-18T02:43:28.453Z,89.20
2019-05-18T02:46:00.182Z,89.10
2019-05-18T02:48:47.486Z,111.63
2019-05-18T02:51:05.619Z,101.17
2019-05-18T02:53:37.328Z,101.13
2019-05-18T02:56:09.134Z,103.03
2019-05-18T02:58:40.847Z,104.17
2019-05-18T03:01:12.772Z,98.03
2019-05-18T03:03:44.579Z,102.73
2019-05-18T03:06:16.623Z,105.13
2019-05-18T03:08:48.447Z,122.10
2019-05-18T03:11:20.469Z,108.70
2019-05-18T03:13:52.478Z,115.77
2019-05-18T03:16:24.324Z,99.70
2019-05-18T03:19:07.334Z,123.77
2019-05-18T03:21:29.852Z,137.07
2019-05-18T03:24:01.565Z,135.37
2019-05-18T03:26:33.282Z,134.57
2019-05-18T03:29:05.006Z,124.03
2019-05-18T03:31:36.919Z,133.87
2019-05-18T03:34:08.808Z,160.40
2019-05-18T03:36:40.729Z,166.07
2019-05-18T03:39:12.537Z,146.00
2019-05-18T03:41:44.384Z,156.70
2019-05-18T03:44:16.161Z,172.80
2019-05-18T03:46:48.051Z,177.07
2019-05-18T03:49:26.983Z,125.30
2019-05-18T03:51:53.375Z,129.63
2019-05-18T03:54:25.071Z,177.03
2019-05-18T03:56:56.796Z,134.87
2019-05-18T03:59:28.513Z,130.20
2019-05-18T04:02:00.337Z,126.17
2019-05-18T04:04:32.060Z,128.13
2019-05-18T04:07:03.882Z,122.97
2019-05-18T04:09:35.573Z,122.27
2019-05-18T04:12:07.406Z,117.20
2019-05-18T04:14:39.214Z,100.03
2019-05-18T04:17:11.050Z,96.57
2019-05-18T04:19:46.819Z,94.10
2019-05-18T04:22:16.495Z,99.13
2019-05-18T04:24:48.198Z,96.73
2019-05-18T04:27:19.941Z,89.03
2019-05-18T04:29:51.729Z,95.10
2019-05-18T04:32:23.445Z,81.47
2019-05-18T04:34:55.151Z,88.40
2019-05-18T04:37:26.869Z,77.00
2019-05-18T04:39:58.574Z,69.73
2019-05-18T04:42:30.293Z,60.30
2019-05-18T04:45:02.197Z,55.13
2019-05-18T04:47:34.117Z,49.53
2019-05-18T04:50:06.492Z,41.67
2019-05-18T04:52:38.360Z,45.27
2019-05-18T04:55:10.202Z,46.20
2019-05-18T04:57:42.002Z,50.20
2019-05-18T05:00:13.926Z,43.23
2019-05-18T05:02:45.653Z,48.10
2019-05-18T05:05:17.351Z,48.87
2019-05-18T05:07:49.173Z,48.87
2019-05-18T05:10:20.872Z,54.40
2019-05-18T05:12:52.732Z,44.80
2019-05-18T05:15:24.434Z,47.33
2019-05-18T05:17:56.173Z,42.80
2019-05-18T05:20:27.888Z,39.13
2019-05-18T05:22:59.693Z,36.73
2019-05-18T05:25:31.496Z,38.63
2019-05-18T05:28:03.474Z,38.67
2019-05-18T05:30:35.252Z,36.37
2019-05-18T05:33:06.960Z,31.90
2019-05-18T05:35:38.666Z,39.67
2019-05-18T05:38:10.392Z,34.57
2019-05-18T05:40:42.085Z,34.70
2019-05-18T05:43:14.132Z,35.33
2019-05-18T05:45:46.556Z,30.37
2019-05-18T05:48:20.800Z,32.23
2019-05-18T05:50:52.500Z,29.57
2019-05-18T05:53:26.565Z,29.23
2019-05-18T05:55:58.437Z,30.10
2019-05-18T05:58:30.325Z,30.70
2019-05-18T06:01:02.061Z,33.00
2019-05-18T06:03:33.980Z,28.17
2019-05-18T06:06:05.696Z,30.12
2019-05-18T06:08:37.424Z,27.10
2019-05-18T06:11:09.142Z,27.32
2019-05-18T06:13:41.091Z,31.10
2019-05-18T06:16:13.306Z,26.52
2019-05-18T06:18:45.229Z,28.95
2019-05-18T06:21:17.412Z,29.72
2019-05-18T06:23:49.235Z,29.90
2019-05-18T06:26:23.747Z,26.75
2019-05-18T06:28:54.582Z,27.45
2019-05-18T06:31:29.378Z,27.05
2019-05-18T06:34:01.114Z,21.52
2019-05-18T06:36:32.830Z,24.82
2019-05-18T06:39:06.282Z,21.85
2019-05-18T06:41:38.098Z,21.30
2019-05-18T06:44:09.913Z,21.48
2019-05-18T06:46:41.644Z,21.55
2019-05-18T06:49:13.411Z,23.60
2019-05-18T06:51:45.252Z,20.48
2019-05-18T06:54:19.555Z,20.32
2019-05-18T06:57:11.979Z,20.10
2019-05-18T06:59:44.492Z,22.45
2019-05-18T07:02:16.199Z,17.70
2019-05-18T07:04:48.035Z,18.82
2019-05-18T07:07:21.937Z,18.62
2019-05-18T07:09:53.749Z,15.48
2019-05-18T07:12:25.729Z,15.28
2019-05-18T07:15:00.247Z,15.18
2019-05-18T07:17:34.488Z,11.70
2019-05-18T07:20:05.568Z,15.10
2019-05-18T07:22:37.400Z,12.53
2019-05-18T07:25:11.028Z,13.70
2019-05-18T07:27:42.865Z,14.33
2019-05-18T07:30:15.604Z,15.60
2019-05-18T07:32:47.352Z,14.30
2019-05-18T07:35:19.528Z,13.53
2019-05-18T07:37:51.330Z,17.30
2019-05-18T07:40:23.175Z,18.37
2019-05-18T07:42:55.008Z,13.65
2019-05-18T07:45:26.936Z,12.95
2019-05-18T07:47:58.669Z,14.80
2019-05-18T07:50:30.500Z,13.28
2019-05-18T07:53:02.271Z,12.73
2019-05-18T07:55:34.222Z,14.95
2019-05-18T07:58:05.925Z,14.33
2019-05-18T08:00:37.676Z,13.05
2019-05-18T08:03:09.414Z,13.58
2019-05-18T08:05:41.182Z,11.28
2019-05-18T08:08:12.913Z,12.95
2019-05-18T08:10:44.745Z,10.38
2019-05-18T08:13:16.555Z,12.05
2019-05-18T08:15:48.468Z,14.87
2019-05-18T08:18:20.188Z,17.95
2019-05-18T08:20:51.959Z,10.63
2019-05-18T08:23:23.772Z,10.93
2019-05-18T08:25:55.504Z,9.20
2019-05-18T08:28:27.307Z,8.25
2019-05-18T08:30:59.221Z,9.98
2019-05-18T08:33:30.923Z,7.67
2019-05-18T08:36:02.657Z,15.05
2019-05-18T08:38:34.457Z,9.40
2019-05-18T08:41:06.173Z,8.65
2019-05-18T08:43:37.882Z,9.50
2019-05-18T08:46:09.712Z,10.05
2019-05-18T08:48:41.488Z,11.08
2019-05-18T08:51:13.306Z,8.83
2019-05-18T08:53:45.030Z,11.22
2019-05-18T08:56:16.989Z,12.33
2019-05-18T08:58:48.761Z,9.95
2019-05-18T09:01:20.635Z,11.03
2019-05-18T09:03:52.449Z,8.00
2019-05-18T09:06:24.380Z,10.43
2019-05-18T09:08:56.087Z,8.80
2019-05-18T09:11:27.814Z,14.45
2019-05-18T09:13:59.529Z,10.15
2019-05-18T09:16:31.280Z,9.83
2019-05-18T09:19:03.186Z,9.63
2019-05-18T09:21:35.024Z,8.15
2019-05-18T09:24:06.824Z,9.03
2019-05-18T09:26:38.573Z,6.67
2019-05-18T09:29:10.317Z,5.90
2019-05-18T09:31:42.048Z,7.55
2019-05-18T09:34:13.814Z,5.70
2019-05-18T09:36:45.642Z,6.47
2019-05-18T09:39:17.449Z,9.10
2019-05-18T09:41:49.163Z,7.10
2019-05-18T09:44:20.876Z,5.75
2019-05-18T09:46:52.660Z,5.92
2019-05-18T09:49:24.385Z,6.40
2019-05-18T09:51:56.201Z,8.08
2019-05-18T09:54:28.127Z,6.28
2019-05-18T09:56:59.844Z,6.05
2019-05-18T09:59:31.549Z,8.23
2019-05-18T10:02:03.624Z,6.17
2019-05-18T10:04:35.418Z,10.25
2019-05-18T10:07:07.392Z,8.45
2019-05-18T10:09:39.913Z,6.00
2019-05-18T10:12:11.850Z,6.10
2019-05-18T10:14:43.672Z,7.55
2019-05-18T10:17:15.439Z,10.13
2019-05-18T10:19:47.172Z,8.73
2019-05-18T10:22:18.942Z,7.25
2019-05-18T10:24:50.751Z,10.03
2019-05-18T10:27:22.636Z,8.50
2019-05-18T10:29:54.344Z,8.83
2019-05-18T10:32:26.098Z,11.25
2019-05-18T10:34:57.966Z,7.78
2019-05-18T10:37:29.693Z,9.40
2019-05-18T10:40:01.422Z,8.80
2019-05-18T10:42:33.148Z,9.98
2019-05-18T10:45:06.180Z,10.32
2019-05-18T10:47:37.912Z,8.63
2019-05-18T10:50:10.238Z,6.28
2019-05-18T10:52:42.093Z,8.35
2019-05-18T10:55:14.001Z,11.38
2019-05-18T10:57:45.726Z,6.55
2019-05-18T11:00:17.841Z,9.75
2019-05-18T11:02:49.605Z,6.00
2019-05-18T11:05:21.730Z,6.65
2019-05-18T11:07:53.573Z,7.22
2019-05-18T11:10:25.528Z,7.72
2019-05-18T11:12:57.403Z,10.30
2019-05-18T11:15:29.267Z,5.20
2019-05-18T11:18:01.151Z,3.77
2019-05-18T11:20:32.976Z,3.80
2019-05-18T11:23:04.977Z,4.62
2019-05-18T11:25:36.894Z,5.85
2019-05-18T11:28:08.768Z,5.08
2019-05-18T11:30:40.463Z,5.15
2019-05-18T11:33:12.245Z,10.03
2019-05-18T11:35:44.245Z,4.60
2019-05-18T11:38:15.969Z,6.75
2019-05-18T11:40:47.672Z,3.90
2019-05-18T11:43:19.401Z,6.60
2019-05-18T11:45:51.264Z,8.10
2019-05-18T11:48:22.972Z,4.95
2019-05-18T11:50:56.836Z,5.33
2019-05-18T11:53:28.602Z,5.62
2019-05-18T11:56:00.442Z,5.83
2019-05-18T11:58:32.249Z,5.58
2019-05-18T12:01:04.129Z,4.62
2019-05-18T12:03:35.962Z,6.17
2019-05-18T12:06:07.724Z,5.65
2019-05-18T12:08:39.494Z,5.70
2019-05-18T12:11:11.360Z,5.47
2019-05-18T12:13:43.108Z,4.87
2019-05-18T12:16:17.453Z,6.75
2019-05-18T12:18:48.508Z,5.00
2019-05-18T12:21:20.313Z,6.17
2019-05-18T12:23:52.137Z,5.92
2019-05-18T12:26:23.904Z,5.70
2019-05-18T12:28:55.732Z,4.97
2019-05-18T12:31:27.472Z,8.55
2019-05-18T12:33:59.193Z,8.10
2019-05-18T12:36:30.935Z,8.15
2019-05-18T12:39:04.939Z,7.30
2019-05-18T12:41:36.738Z,5.97
2019-05-18T12:44:08.489Z,5.70
2019-05-18T12:46:40.665Z,5.78
2019-05-18T12:49:12.553Z,5.15
2019-05-18T12:51:44.364Z,5.85
2019-05-18T12:54:28.684Z,8.90
2019-05-18T12:56:49.696Z,9.08
2019-05-18T12:59:21.545Z,8.05
2019-05-18T13:01:53.357Z,4.17
2019-05-18T13:04:25.117Z,5.90
2019-05-18T13:06:56.848Z,11.70
2019-05-18T13:09:28.585Z,5.37
2019-05-18T13:12:00.309Z,4.75
2019-05-18T13:14:32.049Z,3.85
2019-05-18T13:17:03.902Z,8.18
2019-05-18T13:19:35.639Z,6.37
2019-05-18T13:22:07.466Z,4.55
2019-05-18T13:24:45.252Z,4.05
2019-05-18T13:27:13.045Z,6.10
2019-05-18T13:29:44.925Z,3.08
2019-05-18T13:32:16.693Z,5.83
2019-05-18T13:34:48.521Z,5.17
2019-05-18T13:37:20.313Z,6.12
2019-05-18T13:39:52.052Z,3.95
2019-05-18T13:42:23.766Z,3.47
2019-05-18T13:44:55.484Z,6.72
2019-05-18T13:47:27.196Z,3.90
2019-05-18T13:49:58.940Z,5.25
2019-05-18T13:52:30.660Z,3.62
2019-05-18T13:55:05.021Z,3.72
2019-05-18T13:57:36.624Z,3.10
2019-05-18T14:00:09.370Z,5.05
2019-05-18T14:02:41.229Z,3.27
2019-05-18T14:05:14.239Z,7.17
2019-05-18T14:07:45.984Z,4.93
2019-05-18T14:10:18.120Z,2.77
2019-05-18T14:12:49.829Z,4.23
2019-05-18T14:15:22.963Z,3.67
2019-05-18T14:17:55.670Z,3.72
2019-05-18T14:20:27.413Z,2.83
2019-05-18T14:22:59.209Z,2.92
2019-05-18T14:25:31.049Z,4.07
2019-05-18T14:28:03.097Z,6.03
2019-05-18T14:30:34.994Z,6.53
2019-05-18T14:33:06.825Z,3.83
2019-05-18T14:35:38.668Z,3.12
2019-05-18T14:38:10.544Z,4.70
2019-05-18T14:40:42.314Z,5.30
2019-05-18T14:43:14.277Z,6.50
2019-05-18T14:45:49.125Z,2.60
2019-05-18T14:48:19.857Z,6.65
2019-05-18T14:50:51.688Z,3.57
2019-05-18T14:53:23.421Z,3.75
2019-05-18T14:55:55.174Z,6.62
2019-05-18T14:58:26.891Z,4.78
2019-05-18T15:00:58.710Z,2.05
2019-05-18T15:03:30.518Z,2.02
2019-05-18T15:06:02.362Z,2.20
2019-05-18T15:08:34.088Z,4.07
2019-05-18T15:11:05.954Z,2.72
2019-05-18T15:13:37.855Z,5.50
2019-05-18T15:16:09.584Z,4.25
2019-05-18T15:18:41.493Z,4.87
2019-05-18T15:21:13.250Z,4.28
2019-05-18T15:23:45.061Z,3.70
2019-05-18T15:26:16.782Z,4.00
2019-05-18T15:28:48.485Z,2.40
2019-05-18T15:31:23.332Z,4.30
2019-05-18T15:33:53.910Z,4.67
2019-05-18T15:36:25.750Z,2.50
2019-05-18T15:38:57.482Z,4.93
2019-05-18T15:41:29.202Z,3.97
2019-05-18T15:44:01.131Z,2.10
2019-05-18T15:46:32.942Z,3.10
2019-05-18T15:49:04.674Z,2.02
2019-05-18T15:51:36.496Z,1.67
2019-05-18T15:54:08.320Z,3.00
2019-05-18T15:56:40.040Z,4.90
2019-05-18T15:59:11.777Z,5.23
2019-05-18T16:01:43.500Z,2.60
2019-05-18T16:04:15.240Z,2.30
2019-05-18T16:06:46.989Z,2.43
2019-05-18T16:09:18.728Z,3.35
2019-05-18T16:11:50.466Z,2.67
2019-05-18T16:14:22.161Z,3.63
2019-05-18T16:16:55.063Z,1.98
2019-05-18T16:19:27.148Z,3.37
2019-05-18T16:21:58.876Z,1.80
2019-05-18T16:24:30.607Z,3.20
2019-05-18T16:27:02.501Z,2.97
2019-05-18T16:29:34.224Z,2.47
2019-05-18T16:32:06.134Z,5.77
2019-05-18T16:34:38.033Z,3.97
2019-05-18T16:37:09.774Z,5.70
2019-05-18T16:39:41.497Z,4.07
2019-05-18T16:42:13.330Z,3.80
2019-05-18T16:44:45.041Z,2.33
2019-05-18T16:47:16.874Z,3.53
2019-05-18T16:49:48.825Z,2.77
2019-05-18T16:52:20.695Z,3.10
2019-05-18T16:54:52.513Z,2.47
2019-05-18T16:57:24.421Z,3.63
2019-05-18T16:59:56.145Z,6.00
2019-05-18T17:02:31.744Z,2.53
2019-05-18T17:05:01.915Z,3.43
2019-05-18T17:07:33.903Z,3.83
2019-05-18T17:10:06.552Z,2.97
2019-05-18T17:12:38.293Z,4.13
2019-05-18T17:15:10.524Z,2.13
2019-05-18T17:17:42.361Z,4.13
2019-05-18T17:20:14.608Z,4.17
2019-05-18T17:22:46.428Z,4.53
2019-05-18T17:25:18.145Z,3.40
2019-05-18T17:27:50.081Z,2.63
2019-05-18T17:30:22.010Z,2.80
2019-05-18T17:32:53.753Z,3.00
2019-05-18T17:35:25.576Z,3.80
2019-05-18T17:37:57.298Z,3.73
2019-05-18T17:40:29.021Z,3.70
2019-05-18T17:43:00.750Z,3.37
2019-05-18T17:45:32.545Z,4.43
2019-05-18T17:48:04.455Z,2.37
2019-05-18T17:50:36.196Z,3.03
2019-05-18T17:53:07.937Z,3.00
2019-05-18T17:55:39.820Z,3.60
2019-05-18T17:58:11.576Z,3.93
2019-05-18T18:00:43.752Z,2.97
2019-05-18T18:03:15.597Z,4.97
2019-05-18T18:05:47.444Z,3.13
2019-05-18T18:08:19.274Z,2.93
2019-05-18T18:10:51.011Z,8.93
2019-05-18T18:13:22.778Z,3.97
2019-05-18T18:15:54.508Z,4.47
2019-05-18T18:18:26.384Z,4.47
2019-05-18T18:20:58.140Z,3.20
2019-05-18T18:23:30.082Z,5.00
2019-05-18T18:26:01.846Z,6.23
2019-05-18T18:28:33.924Z,4.13
2019-05-18T18:31:05.882Z,3.80
2019-05-18T18:33:37.820Z,4.73
2019-05-18T18:36:09.551Z,5.13
2019-05-18T18:38:41.317Z,5.53
2019-05-18T18:41:13.153Z,8.03
2019-05-18T18:43:44.948Z,9.33
2019-05-18T18:46:16.690Z,10.20
2019-05-18T18:48:48.437Z,9.10
2019-05-18T18:51:20.162Z,9.13
2019-05-18T18:53:52.084Z,14.10
2019-05-18T18:56:23.791Z,11.00
2019-05-18T18:58:55.553Z,12.13
2019-05-18T19:01:27.346Z,9.13
2019-05-18T19:03:59.245Z,11.67
2019-05-18T19:06:30.965Z,7.90
2019-05-18T19:09:05.023Z,11.60
2019-05-18T19:11:36.732Z,16.53
2019-05-18T19:14:08.718Z,21.93
2019-05-18T19:16:40.532Z,22.80
2019-05-18T19:19:12.373Z,24.73
2019-05-18T19:21:44.092Z,20.00
2019-05-18T19:24:15.933Z,20.20
2019-05-18T19:26:47.688Z,20.47
2019-05-18T19:29:19.499Z,14.93
2019-05-18T19:31:51.219Z,14.63
2019-05-18T19:34:23.122Z,16.83
2019-05-18T19:36:54.927Z,14.13
2019-05-18T19:39:26.718Z,23.20
2019-05-18T19:41:58.476Z,25.97
2019-05-18T19:44:30.336Z,21.80
2019-05-18T19:47:02.180Z,19.70
2019-05-18T19:49:33.994Z,22.07
2019-05-18T19:52:05.802Z,22.13
2019-05-18T19:54:40.694Z,22.70
2019-05-18T19:57:12.421Z,19.57
2019-05-18T19:59:44.245Z,15.87
2019-05-18T20:02:18.525Z,18.13
2019-05-18T20:05:05.620Z,20.00
2019-05-18T20:07:23.192Z,16.67
2019-05-18T20:09:55.012Z,15.87
2019-05-18T20:12:26.709Z,14.63
2019-05-18T20:14:58.457Z,15.40
2019-05-18T20:17:30.204Z,21.43
2019-05-18T20:20:02.010Z,15.60
2019-05-18T20:22:33.813Z,19.50
2019-05-18T20:25:06.054Z,17.23
2019-05-18T20:27:37.870Z,15.57
2019-05-18T20:30:10.489Z,16.03
2019-05-18T20:32:42.217Z,17.17
2019-05-18T20:35:14.962Z,19.20
2019-05-18T20:37:46.848Z,20.93
2019-05-18T20:40:18.659Z,20.07
2019-05-18T20:42:50.498Z,26.43
2019-05-18T20:45:22.223Z,18.27
2019-05-18T20:47:53.952Z,22.43
2019-05-18T20:50:25.715Z,23.10
2019-05-18T20:52:57.525Z,24.37
2019-05-18T20:55:29.244Z,20.90
2019-05-18T20:58:00.969Z,18.03
2019-05-18T21:00:32.716Z,18.23
2019-05-18T21:03:04.517Z,33.83
2019-05-18T21:05:36.455Z,39.13
2019-05-18T21:08:08.333Z,33.10
2019-05-18T21:10:40.196Z,27.50
2019-05-18T21:13:11.942Z,28.50
2019-05-18T21:15:43.967Z,52.77
2019-05-18T21:18:15.694Z,52.27
2019-05-18T21:20:47.489Z,42.40
2019-05-18T21:23:19.213Z,38.57
2019-05-18T21:25:51.039Z,37.60
2019-05-18T21:28:22.841Z,39.80
2019-05-18T21:30:54.713Z,34.90
2019-05-18T21:33:26.528Z,40.80
2019-05-18T21:35:58.351Z,43.43
2019-05-18T21:38:30.073Z,45.07
2019-05-18T21:41:01.850Z,50.10
2019-05-18T21:43:33.743Z,46.23
2019-05-18T21:46:05.555Z,46.13
2019-05-18T21:48:37.252Z,48.60
2019-05-18T21:51:09.073Z,48.07
2019-05-18T21:53:40.805Z,55.47
2019-05-18T21:56:12.632Z,49.93
2019-05-18T21:58:44.459Z,53.33
2019-05-18T22:01:16.185Z,56.17
2019-05-18T22:03:48.383Z,54.60
2019-05-18T22:06:20.350Z,65.13
2019-05-18T22:08:52.134Z,56.77
2019-05-18T22:11:23.867Z,53.90
2019-05-18T22:13:55.686Z,42.07
2019-05-18T22:16:27.418Z,44.30
2019-05-18T22:18:59.147Z,33.57
2019-05-18T22:21:30.974Z,25.80
2019-05-18T22:24:02.720Z,24.77
2019-05-18T22:26:34.437Z,19.80
2019-05-18T22:29:06.361Z,18.23
2019-05-18T22:31:38.087Z,20.13
2019-05-18T22:34:09.788Z,18.30
2019-05-18T22:36:41.516Z,20.30
2019-05-18T22:39:13.227Z,22.83
2019-05-18T22:41:45.143Z,22.23
2019-05-18T22:44:16.888Z,22.77
2019-05-18T22:46:48.596Z,22.53
2019-05-18T22:49:20.318Z,19.03
2019-05-18T22:51:52.122Z,21.03
2019-05-18T22:54:23.851Z,23.57
2019-05-18T22:56:55.770Z,22.47
2019-05-18T22:59:27.680Z,19.00
2019-05-18T23:01:59.419Z,23.30
2019-05-18T23:04:31.305Z,20.10
2019-05-18T23:07:03.039Z,20.57
2019-05-18T23:09:34.753Z,21.37
2019-05-18T23:12:06.484Z,23.13
2019-05-18T23:14:38.287Z,23.33
2019-05-18T23:17:10.006Z,29.47
2019-05-18T23:19:41.752Z,26.23
2019-05-18T23:22:13.556Z,26.20
2019-05-18T23:24:45.261Z,24.27
2019-05-18T23:27:16.976Z,22.07
2019-05-18T23:29:48.689Z,21.20
2019-05-18T23:32:20.504Z,25.90
2019-05-18T23:34:52.306Z,23.03
2019-05-18T23:37:24.022Z,23.87
2019-05-18T23:39:55.731Z,24.87
2019-05-18T23:42:27.673Z,23.75
2019-05-18T23:44:59.508Z,22.53
2019-05-18T23:47:31.402Z,25.10
2019-05-18T23:50:03.827Z,24.43
2019-05-18T23:52:35.564Z,21.83
2019-05-18T23:55:08.515Z,21.73
2019-05-18T23:57:40.238Z,23.83
